Tokuyama21century — JK5158 — position and weather

sailwx.info

Track history (hours):
 
Tides and Currents Weather Stations Pressure Air Temp Water Temp Dewpoint Dewpoint Depression Visibility Wind Speed Wind Dir Waves Ship Positions

Tokuyama21century

Last reported at 2017-Nov-17 14:17 UTC. Time now 2017-Nov-22 14:46 UTC.
Position N 34°14' E 134°56'.

Length 75 m; draft 6 m.

Type: Cargo ship. MMSI: 431400048.

Date/timePositionNaut miles runAvg speedWind from/ knotsBaromVisibWave heightAir tempDewpointWater temp
2017-Nov-17 14:17N 34°14' E 134°56'512.3
2017-Nov-17 13:54N 34°18' E 134°59'612.3
2017-Nov-17 13:25N 34°23' E 135°02'512.8
2017-Nov-17 13:00N 34°27' E 135°07'612.5
2017-Nov-17 12:30N 34°30' E 135°13'612.3
2017-Nov-17 12:00N 34°35' E 135°18'612.1
2017-Nov-17 11:30N 34°39' E 135°24'2 4.0
2017-Nov-17 11:00N 34°39' E 135°27'0 0.0
2017-Nov-17 10:27N 34°39' E 135°27'0 0.0
2017-Nov-17 09:57N 34°39' E 135°27'0 0.0
2017-Nov-17 09:21N 34°39' E 135°27'0 0.0
2017-Nov-17 08:45N 34°39' E 135°27'0 0.0
2017-Nov-17 08:27N 34°39' E 135°27'0 0.0
2017-Nov-17 07:51N 34°39' E 135°27'1 2.0
2017-Nov-17 07:31N 34°39' E 135°26'510.5
2017-Nov-17 07:00N 34°36' E 135°20'611.4
2017-Nov-17 06:30N 34°35' E 135°13'612.0
2017-Nov-17 06:00N 34°35' E 135°06'  
2017-Nov-14 04:51N 34°35' E 134°53'511.3
2017-Nov-14 04:27N 34°37' E 134°58'4 9.6
2017-Nov-14 04:00N 34°36' E 135°03'510.9
2017-Nov-14 03:30N 34°37' E 135°09'612.2
2017-Nov-14 03:00N 34°38' E 135°17'611.7
2017-Nov-14 02:31N 34°38' E 135°24'2 4.8
2017-Nov-14 02:01N 34°39' E 135°27'0 0.0
2017-Nov-14 01:31N 34°39' E 135°27'0 0.0
2017-Nov-14 00:56N 34°39' E 135°27'0 0.0
2017-Nov-14 00:26N 34°39' E 135°27'0 0.0
2017-Nov-13 23:50N 34°39' E 135°27'0 0.0
2017-Nov-13 23:26N 34°39' E 135°27'0 0.0
2017-Nov-13 22:50N 34°39' E 135°27'0 0.0
2017-Nov-13 21:44N 34°39' E 135°27'11 0.5
2017-Nov-13 00:54N 34°28' E 135°22'0 0.0
2017-Nov-12 22:45N 34°28' E 135°22'1 2.1
2017-Nov-12 22:30N 34°29' E 135°22'2 2.8
2017-Nov-12 21:56N 34°30' E 135°21'0 0.0
2017-Nov-12 21:26N 34°30' E 135°21'0 0.0
2017-Nov-12 20:50N 34°30' E 135°21'0 0.0
2017-Nov-12 20:02N 34°30' E 135°21'0 0.0
2017-Nov-12 19:32N 34°30' E 135°21'0 0.0
2017-Nov-12 19:14N 34°30' E 135°21'0 0.0
2017-Nov-12 18:56N 34°30' E 135°21'0 0.0
2017-Nov-12 18:26N 34°30' E 135°21'0 0.0
2017-Nov-12 17:50N 34°30' E 135°21'0 0.0
2017-Nov-12 17:26N 34°30' E 135°21'0 0.0
2017-Nov-12 16:56N 34°30' E 135°21'0 0.1
2017-Nov-12 16:20N 34°30' E 135°21'0 0.0
2017-Nov-12 15:56N 34°30' E 135°21'0 0.0
2017-Nov-12 15:20N 34°30' E 135°21'0 0.1
2017-Nov-12 14:56N 34°30' E 135°21'0 0.1
2017-Nov-12 14:15N 34°30' E 135°21'1 4.5
2017-Nov-12 14:00N 34°30' E 135°19'510.1
2017-Nov-12 13:30N 34°30' E 135°13'510.2
2017-Nov-12 12:59N 34°33' E 135°08'612.5
2017-Nov-12 12:30N 34°36' E 135°02'  
2017-Nov-10 07:27N 34°37' E 134°58'511.5
2017-Nov-10 07:00N 34°36' E 135°04'611.9
2017-Nov-10 06:30N 34°37' E 135°11'611.8
2017-Nov-10 06:00N 34°38' E 135°18'611.2
2017-Nov-10 05:30N 34°39' E 135°25'1 2.6
2017-Nov-10 05:00N 34°39' E 135°27'0 0.0
2017-Nov-10 04:27N 34°39' E 135°27'0 0.0
2017-Nov-10 03:57N 34°39' E 135°27'0 0.0
2017-Nov-10 03:27N 34°39' E 135°27'0 0.0
2017-Nov-10 02:57N 34°39' E 135°27'0 0.0
2017-Nov-10 02:27N 34°39' E 135°27'0 0.0
2017-Nov-10 01:51N 34°39' E 135°27'0 0.0
2017-Nov-10 01:27N 34°39' E 135°27'0 0.0
2017-Nov-10 00:57N 34°39' E 135°27'0 0.0
2017-Nov-10 00:21N 34°39' E 135°27'0 0.0
2017-Nov-09 23:57N 34°39' E 135°27'0 0.0
2017-Nov-09 23:27N 34°39' E 135°27'0 0.0
2017-Nov-09 22:57N 34°39' E 135°27'0 0.0
2017-Nov-09 22:27N 34°39' E 135°27'0 0.0
2017-Nov-09 21:57N 34°39' E 135°27'0 0.0
2017-Nov-09 21:15N 34°39' E 135°27'0 0.0
2017-Nov-09 20:57N 34°39' E 135°27'0 0.0
2017-Nov-09 20:27N 34°39' E 135°27'0 0.0
2017-Nov-09 19:57N 34°39' E 135°27'0 0.0
2017-Nov-09 18:57N 34°39' E 135°27'0 0.0
2017-Nov-09 18:27N 34°39' E 135°27'0 0.0
2017-Nov-09 17:57N 34°39' E 135°27'0 0.0
2017-Nov-09 17:27N 34°39' E 135°27'0 0.0
2017-Nov-09 16:57N 34°39' E 135°27'0 0.0
2017-Nov-09 16:27N 34°39' E 135°27'0 0.0
2017-Nov-09 15:57N 34°39' E 135°27'0 0.0
2017-Nov-09 15:27N 34°39' E 135°27'0 0.0
2017-Nov-09 14:57N 34°39' E 135°27'0 0.0
2017-Nov-09 14:27N 34°39' E 135°27'0 0.0
2017-Nov-09 13:57N 34°39' E 135°27'0 0.0
2017-Nov-09 13:21N 34°39' E 135°27'0 0.0
2017-Nov-09 12:57N 34°39' E 135°27'0 0.0
2017-Nov-09 12:27N 34°39' E 135°27'0 0.0
2017-Nov-09 11:57N 34°39' E 135°27'0 0.0
2017-Nov-09 11:27N 34°39' E 135°27'0 0.0
2017-Nov-09 10:57N 34°39' E 135°27'0 0.0
2017-Nov-09 10:27N 34°39' E 135°27'0 0.0
2017-Nov-09 09:57N 34°39' E 135°27'0 0.0
2017-Nov-09 09:27N 34°39' E 135°27'0 0.0
2017-Nov-09 09:01N 34°39' E 135°27'3 6.7
2017-Nov-09 08:30N 34°38' E 135°23'510.5
2017-Nov-09 08:00N 34°36' E 135°17'511.0
2017-Nov-09 07:31N 34°35' E 135°10'611.1
2017-Nov-09 07:01N 34°36' E 135°04'  
Track history (hours):
 
Tides and Currents Weather Stations Pressure Air Temp Water Temp Dewpoint Dewpoint Depression Visibility Wind Speed Wind Dir Waves Ship Positions

Tokuyama21century

Last reported at 2017-Nov-17 14:17 UTC. Time now 2017-Nov-22 14:46 UTC.
Position N 34°14' E 134°56'.

Length 75 m; draft 6 m.

Type: Cargo ship. MMSI: 431400048.

Date/timePositionNaut miles runAvg speedWind from/ knotsBaromVisibWave heightAir tempDewpointWater temp
2017-Nov-17 14:17N 34°14' E 134°56'512.3
2017-Nov-17 13:54N 34°18' E 134°59'612.3
2017-Nov-17 13:25N 34°23' E 135°02'512.8
2017-Nov-17 13:00N 34°27' E 135°07'612.5
2017-Nov-17 12:30N 34°30' E 135°13'612.3
2017-Nov-17 12:00N 34°35' E 135°18'612.1
2017-Nov-17 11:30N 34°39' E 135°24'2 4.0
2017-Nov-17 11:00N 34°39' E 135°27'0 0.0
2017-Nov-17 10:27N 34°39' E 135°27'0 0.0
2017-Nov-17 09:57N 34°39' E 135°27'0 0.0
2017-Nov-17 09:21N 34°39' E 135°27'0 0.0
2017-Nov-17 08:45N 34°39' E 135°27'0 0.0
2017-Nov-17 08:27N 34°39' E 135°27'0 0.0
2017-Nov-17 07:51N 34°39' E 135°27'1 2.0
2017-Nov-17 07:31N 34°39' E 135°26'510.5
2017-Nov-17 07:00N 34°36' E 135°20'611.4
2017-Nov-17 06:30N 34°35' E 135°13'612.0
2017-Nov-17 06:00N 34°35' E 135°06'  
2017-Nov-14 04:51N 34°35' E 134°53'511.3
2017-Nov-14 04:27N 34°37' E 134°58'4 9.6
2017-Nov-14 04:00N 34°36' E 135°03'510.9
2017-Nov-14 03:30N 34°37' E 135°09'612.2
2017-Nov-14 03:00N 34°38' E 135°17'611.7
2017-Nov-14 02:31N 34°38' E 135°24'2 4.8
2017-Nov-14 02:01N 34°39' E 135°27'0 0.0
2017-Nov-14 01:31N 34°39' E 135°27'0 0.0
2017-Nov-14 00:56N 34°39' E 135°27'0 0.0
2017-Nov-14 00:26N 34°39' E 135°27'0 0.0
2017-Nov-13 23:50N 34°39' E 135°27'0 0.0
2017-Nov-13 23:26N 34°39' E 135°27'0 0.0
2017-Nov-13 22:50N 34°39' E 135°27'0 0.0
2017-Nov-13 21:44N 34°39' E 135°27'11 0.5
2017-Nov-13 00:54N 34°28' E 135°22'0 0.0
2017-Nov-12 22:45N 34°28' E 135°22'1 2.1
2017-Nov-12 22:30N 34°29' E 135°22'2 2.8
2017-Nov-12 21:56N 34°30' E 135°21'0 0.0
2017-Nov-12 21:26N 34°30' E 135°21'0 0.0
2017-Nov-12 20:50N 34°30' E 135°21'0 0.0
2017-Nov-12 20:02N 34°30' E 135°21'0 0.0
2017-Nov-12 19:32N 34°30' E 135°21'0 0.0
2017-Nov-12 19:14N 34°30' E 135°21'0 0.0
2017-Nov-12 18:56N 34°30' E 135°21'0 0.0
2017-Nov-12 18:26N 34°30' E 135°21'0 0.0
2017-Nov-12 17:50N 34°30' E 135°21'0 0.0
2017-Nov-12 17:26N 34°30' E 135°21'0 0.0
2017-Nov-12 16:56N 34°30' E 135°21'0 0.1
2017-Nov-12 16:20N 34°30' E 135°21'0 0.0
2017-Nov-12 15:56N 34°30' E 135°21'0 0.0
2017-Nov-12 15:20N 34°30' E 135°21'0 0.1
2017-Nov-12 14:56N 34°30' E 135°21'0 0.1
2017-Nov-12 14:15N 34°30' E 135°21'1 4.5
2017-Nov-12 14:00N 34°30' E 135°19'510.1
2017-Nov-12 13:30N 34°30' E 135°13'510.2
2017-Nov-12 12:59N 34°33' E 135°08'612.5
2017-Nov-12 12:30N 34°36' E 135°02'  
2017-Nov-10 07:27N 34°37' E 134°58'511.5
2017-Nov-10 07:00N 34°36' E 135°04'611.9
2017-Nov-10 06:30N 34°37' E 135°11'611.8
2017-Nov-10 06:00N 34°38' E 135°18'611.2
2017-Nov-10 05:30N 34°39' E 135°25'1 2.6
2017-Nov-10 05:00N 34°39' E 135°27'0 0.0
2017-Nov-10 04:27N 34°39' E 135°27'0 0.0
2017-Nov-10 03:57N 34°39' E 135°27'0 0.0
2017-Nov-10 03:27N 34°39' E 135°27'0 0.0
2017-Nov-10 02:57N 34°39' E 135°27'0 0.0
2017-Nov-10 02:27N 34°39' E 135°27'0 0.0
2017-Nov-10 01:51N 34°39' E 135°27'0 0.0
2017-Nov-10 01:27N 34°39' E 135°27'0 0.0
2017-Nov-10 00:57N 34°39' E 135°27'0 0.0
2017-Nov-10 00:21N 34°39' E 135°27'0 0.0
2017-Nov-09 23:57N 34°39' E 135°27'0 0.0
2017-Nov-09 23:27N 34°39' E 135°27'0 0.0
2017-Nov-09 22:57N 34°39' E 135°27'0 0.0
2017-Nov-09 22:27N 34°39' E 135°27'0 0.0
2017-Nov-09 21:57N 34°39' E 135°27'0 0.0
2017-Nov-09 21:15N 34°39' E 135°27'0 0.0
2017-Nov-09 20:57N 34°39' E 135°27'0 0.0
2017-Nov-09 20:27N 34°39' E 135°27'0 0.0
2017-Nov-09 19:57N 34°39' E 135°27'0 0.0
2017-Nov-09 18:57N 34°39' E 135°27'0 0.0
2017-Nov-09 18:27N 34°39' E 135°27'0 0.0
2017-Nov-09 17:57N 34°39' E 135°27'0 0.0
2017-Nov-09 17:27N 34°39' E 135°27'0 0.0
2017-Nov-09 16:57N 34°39' E 135°27'0 0.0
2017-Nov-09 16:27N 34°39' E 135°27'0 0.0
2017-Nov-09 15:57N 34°39' E 135°27'0 0.0
2017-Nov-09 15:27N 34°39' E 135°27'0 0.0
2017-Nov-09 14:57N 34°39' E 135°27'0 0.0
2017-Nov-09 14:27N 34°39' E 135°27'0 0.0
2017-Nov-09 13:57N 34°39' E 135°27'0 0.0
2017-Nov-09 13:21N 34°39' E 135°27'0 0.0
2017-Nov-09 12:57N 34°39' E 135°27'0 0.0
2017-Nov-09 12:27N 34°39' E 135°27'0 0.0
2017-Nov-09 11:57N 34°39' E 135°27'0 0.0
2017-Nov-09 11:27N 34°39' E 135°27'0 0.0
2017-Nov-09 10:57N 34°39' E 135°27'0 0.0
2017-Nov-09 10:27N 34°39' E 135°27'0 0.0
2017-Nov-09 09:57N 34°39' E 135°27'0 0.0
2017-Nov-09 09:27N 34°39' E 135°27'0 0.0
2017-Nov-09 09:01N 34°39' E 135°27'3 6.7
2017-Nov-09 08:30N 34°38' E 135°23'510.5
2017-Nov-09 08:00N 34°36' E 135°17'511.0
2017-Nov-09 07:31N 34°35' E 135°10'611.1
2017-Nov-09 07:01N 34°36' E 135°04'  

Dump ship's entire track history